Time;durP1;ratioP1;P1;durP2;ratioP2;P2;SDS_P1;SDS_P2;PMS_P1;PMS_P2;Temp;Humidity;BMP_temperature;BMP_pressure;BME280_temperature;BME280_humidity;BME280_pressure;Samples;Min_cycle;Max_cycle;Signal;HPM_P1;HPM_P2
2023/10/05 00:01:31;;;;;;;7.50;3.53;;;19.60;98.80;;;;;;5098013;28;20170;-87
2023/10/05 00:04:01;;;;;;;4.93;3.00;;;19.60;98.70;;;;;;5099642;28;20632;-88
2023/10/05 00:06:27;;;;;;;6.20;2.90;;;19.60;98.90;;;;;;5097665;28;20194;-88
2023/10/05 00:08:56;;;;;;;4.53;2.77;;;19.50;98.90;;;;;;5099171;28;20224;-88
2023/10/05 00:11:24;;;;;;;6.67;3.30;;;19.60;99.00;;;;;;5093386;28;20174;-88
2023/10/05 00:13:51;;;;;;;6.37;3.53;;;19.50;98.90;;;;;;5103466;28;20179;-88
2023/10/05 00:16:22;;;;;;;7.23;3.20;;;19.50;99.00;;;;;;5093259;28;20613;-88
2023/10/05 00:18:52;;;;;;;5.83;3.20;;;19.50;98.80;;;;;;5099114;28;20178;-88
2023/10/05 00:21:20;;;;;;;7.23;3.20;;;19.50;98.90;;;;;;5109947;28;20174;-88
2023/10/05 00:23:53;;;;;;;5.40;2.90;;;19.50;99.00;;;;;;5101206;28;20212;-88
2023/10/05 00:26:23;;;;;;;6.57;3.03;;;19.50;98.90;;;;;;5111275;28;20202;-88
2023/10/05 00:29:18;;;;;;;5.83;3.10;;;19.50;98.80;;;;;;5111979;28;20166;-88
2023/10/05 00:31:45;;;;;;;5.20;3.00;;;19.50;99.00;;;;;;5114293;28;20179;-88
2023/10/05 00:36:49;;;;;;;6.43;2.97;;;19.50;99.00;;;;;;5116819;28;20435;-88
2023/10/05 00:39:19;;;;;;;5.27;3.10;;;19.50;99.30;;;;;;5104544;28;20170;-88
2023/10/05 00:41:49;;;;;;;5.50;3.03;;;19.50;98.90;;;;;;5116666;28;20209;-88
2023/10/05 00:44:15;;;;;;;5.07;2.90;;;19.40;98.90;;;;;;5110953;28;20507;-88
2023/10/05 00:46:48;;;;;;;7.47;2.90;;;19.50;98.90;;;;;;5095855;28;20206;-88
2023/10/05 00:49:21;;;;;;;7.10;3.07;;;19.50;99.10;;;;;;5107823;28;20324;-88
2023/10/05 00:52:11;;;;;;;7.27;3.07;;;19.50;99.10;;;;;;5093240;28;20536;-87
2023/10/05 00:54:40;;;;;;;7.47;3.17;;;19.50;99.00;;;;;;5105483;28;20179;-87
2023/10/05 00:57:09;;;;;;;5.63;3.50;;;19.50;99.00;;;;;;5094907;28;20245;-87
2023/10/05 00:59:36;;;;;;;5.43;2.80;;;19.40;99.00;;;;;;5101638;28;20174;-88
2023/10/05 01:03:22;;;;;;;7.00;2.83;;;19.40;99.00;;;;;;5113344;28;20229;-88
2023/10/05 01:05:56;;;;;;;5.67;3.00;;;19.40;99.00;;;;;;5103816;28;20186;-88
2023/10/05 01:08:23;;;;;;;5.03;3.10;;;19.40;99.00;;;;;;5090788;28;20515;-87
2023/10/05 01:10:53;;;;;;;5.07;2.87;;;19.40;99.10;;;;;;5102354;28;20272;-88
2023/10/05 01:13:30;;;;;;;5.37;2.70;;;19.40;98.70;;;;;;5093751;28;20268;-88
2023/10/05 01:15:57;;;;;;;4.47;2.80;;;19.40;99.20;;;;;;5101591;28;20170;-88
2023/10/05 01:18:25;;;;;;;5.57;2.97;;;19.30;99.10;;;;;;5108973;28;20284;-88
2023/10/05 01:20:51;;;;;;;4.67;2.80;;;19.30;99.20;;;;;;5103874;28;20178;-87
2023/10/05 01:23:18;;;;;;;5.50;2.90;;;19.40;99.00;;;;;;5093192;28;20181;-88
2023/10/05 01:25:44;;;;;;;4.43;2.60;;;19.40;99.30;;;;;;5104809;28;20159;-88
2023/10/05 01:28:09;;;;;;;5.87;2.87;;;19.30;99.20;;;;;;5094026;28;20725;-88
2023/10/05 01:30:38;;;;;;;6.00;2.97;;;19.40;99.10;;;;;;5096852;28;20168;-88
2023/10/05 01:33:04;;;;;;;6.13;2.87;;;19.40;99.10;;;;;;5080063;28;20210;-88
2023/10/05 01:35:30;;;;;;;5.80;2.90;;;19.40;99.10;;;;;;5099792;28;20179;-88
2023/10/05 01:37:59;;;;;;;5.70;3.00;;;19.30;99.10;;;;;;5115182;28;20184;-88
2023/10/05 01:40:25;;;;;;;5.40;3.13;;;19.30;99.20;;;;;;5104063;28;20398;-88
2023/10/05 01:42:52;;;;;;;5.80;2.80;;;19.30;99.10;;;;;;5114847;28;20189;-88
2023/10/05 01:45:34;;;;;;;5.27;3.00;;;19.30;99.00;;;;;;5110808;28;20632;-88
2023/10/05 01:48:11;;;;;;;4.40;3.03;;;19.30;99.20;;;;;;5096040;28;20225;-88
2023/10/05 01:50:39;;;;;;;4.47;2.47;;;19.30;99.30;;;;;;5102909;28;20166;-88
2023/10/05 01:53:07;;;;;;;5.70;2.80;;;19.30;99.20;;;;;;5096453;28;20231;-88
2023/10/05 01:55:36;;;;;;;9.00;2.63;;;19.30;99.30;;;;;;5109748;28;20192;-88
2023/10/05 01:58:05;;;;;;;4.73;2.70;;;19.30;98.90;;;;;;5097531;28;20170;-88
2023/10/05 02:00:32;;;;;;;4.10;2.53;;;19.30;99.20;;;;;;5099778;28;20255;-89
2023/10/05 02:02:57;;;;;;;4.47;2.70;;;19.30;99.10;;;;;;5100491;28;20186;-88
2023/10/05 02:05:23;;;;;;;4.63;2.27;;;19.30;99.20;;;;;;5098340;28;20186;-88
2023/10/05 02:07:50;;;;;;;5.33;2.63;;;19.30;99.20;;;;;;5103567;28;20243;-88
2023/10/05 02:10:22;;;;;;;10.57;3.23;;;19.30;99.30;;;;;;5098285;28;20190;-89
2023/10/05 02:12:54;;;;;;;5.83;2.70;;;19.30;99.30;;;;;;5104901;28;20568;-88
2023/10/05 02:15:28;;;;;;;4.63;2.53;;;19.20;99.20;;;;;;5113976;28;20356;-88
2023/10/05 02:17:58;;;;;;;8.50;2.67;;;19.30;99.30;;;;;;5115976;28;20385;-88
2023/10/05 02:22:58;;;;;;;4.10;2.53;;;19.30;99.40;;;;;;5108075;28;20166;-88
2023/10/05 02:25:33;;;;;;;4.97;2.10;;;19.30;99.30;;;;;;5096606;28;20175;-88
2023/10/05 02:28:00;;;;;;;4.33;2.33;;;19.30;99.30;;;;;;5107110;28;20217;-88
2023/10/05 02:30:30;;;;;;;4.43;2.37;;;19.30;99.30;;;;;;5095815;28;20277;-89
2023/10/05 02:32:58;;;;;;;4.07;2.47;;;19.30;99.30;;;;;;5110118;28;20556;-88
2023/10/05 02:35:30;;;;;;;4.93;2.37;;;19.20;99.40;;;;;;5095299;28;20239;-88
2023/10/05 02:37:58;;;;;;;5.37;2.70;;;19.20;99.20;;;;;;5102201;28;20170;-88
2023/10/05 02:40:27;;;;;;;4.03;2.30;;;19.20;99.40;;;;;;5116739;28;20166;-88
2023/10/05 02:42:54;;;;;;;4.70;2.60;;;19.20;99.40;;;;;;5102964;28;20171;-88
2023/10/05 02:45:21;;;;;;;3.33;2.13;;;19.20;99.40;;;;;;5115125;28;20174;-88
2023/10/05 02:47:51;;;;;;;4.00;2.40;;;19.20;99.40;;;;;;5101069;28;20202;-88
2023/10/05 02:50:19;;;;;;;5.33;2.43;;;19.20;99.40;;;;;;5092387;28;20236;-88
2023/10/05 02:52:44;;;;;;;6.23;2.57;;;19.20;99.30;;;;;;5098272;28;20167;-88
2023/10/05 02:55:10;;;;;;;4.53;2.40;;;19.20;99.20;;;;;;5093941;28;20178;-88
2023/10/05 02:57:39;;;;;;;4.40;2.50;;;19.20;99.40;;;;;;5101879;28;20178;-88
2023/10/05 03:00:08;;;;;;;6.03;2.57;;;19.20;99.40;;;;;;5099031;28;20572;-87
2023/10/05 03:02:37;;;;;;;3.93;2.27;;;19.20;99.30;;;;;;5100651;28;20174;-88
2023/10/05 03:05:06;;;;;;;7.63;2.50;;;19.20;99.40;;;;;;5099449;28;20182;-88
2023/10/05 03:07:32;;;;;;;4.53;2.43;;;19.20;99.40;;;;;;5097172;28;20284;-88
2023/10/05 03:09:59;;;;;;;5.17;2.23;;;19.20;99.40;;;;;;5100583;28;20243;-88
2023/10/05 03:12:25;;;;;;;3.40;2.40;;;19.10;99.30;;;;;;5095440;28;20170;-88
2023/10/05 03:14:52;;;;;;;4.93;2.20;;;19.10;99.50;;;;;;5101637;28;20193;-88
2023/10/05 03:17:21;;;;;;;4.00;2.27;;;19.10;99.60;;;;;;5092522;28;20166;-88
2023/10/05 03:19:50;;;;;;;3.67;2.20;;;19.10;99.50;;;;;;5102992;28;20233;-88
2023/10/05 03:22:16;;;;;;;6.43;2.43;;;19.10;99.60;;;;;;5089958;28;20317;-88
2023/10/05 03:24:44;;;;;;;4.60;2.57;;;19.10;99.60;;;;;;5100644;28;20319;-88
2023/10/05 03:27:10;;;;;;;3.30;2.03;;;19.10;99.50;;;;;;5112136;28;20204;-88
2023/10/05 03:29:38;;;;;;;3.70;2.10;;;19.10;99.60;;;;;;5098226;28;20183;-88
2023/10/05 03:34:34;;;;;;;4.30;2.10;;;19.10;99.50;;;;;;5100220;28;20186;-88
2023/10/05 03:37:07;;;;;;;3.73;2.17;;;19.10;99.70;;;;;;5112870;28;20583;-88
2023/10/05 03:42:22;;;;;;;5.80;2.13;;;19.10;99.60;;;;;;5112213;28;20707;-88
2023/10/05 03:45:09;;;;;;;3.43;2.27;;;19.10;99.60;;;;;;5099806;28;20170;-88
2023/10/05 03:47:37;;;;;;;4.23;2.23;;;19.10;99.60;;;;;;5112949;28;20186;-88
2023/10/05 03:50:08;;;;;;;2.63;1.80;;;19.10;99.70;;;;;;5098970;28;20171;-88
2023/10/05 03:52:34;;;;;;;7.97;2.33;;;19.10;99.60;;;;;;5113903;28;20174;-88
2023/10/05 03:55:05;;;;;;;4.73;2.20;;;19.10;99.60;;;;;;5107724;28;20754;-88
2023/10/05 03:57:31;;;;;;;4.33;2.40;;;19.00;99.60;;;;;;5108037;28;20560;-88
2023/10/05 04:02:46;;;;;;;3.33;1.97;;;19.10;99.70;;;;;;5094215;28;20565;-88
2023/10/05 04:05:12;;;;;;;3.43;2.00;;;19.10;99.60;;;;;;5097797;28;20486;-88
2023/10/05 04:07:39;;;;;;;3.70;2.20;;;19.10;99.70;;;;;;5111520;28;20221;-89
2023/10/05 04:10:07;;;;;;;4.67;2.30;;;19.00;99.60;;;;;;5105687;28;20190;-89
2023/10/05 04:12:32;;;;;;;5.63;2.10;;;19.00;99.60;;;;;;5109162;28;20268;-88
2023/10/05 04:15:06;;;;;;;4.70;2.43;;;19.00;99.50;;;;;;5107142;28;20162;-88
2023/10/05 04:17:31;;;;;;;4.70;1.90;;;19.00;99.50;;;;;;5107166;28;20365;-89
2023/10/05 04:19:58;;;;;;;2.90;2.07;;;19.00;99.50;;;;;;5111689;28;20170;-89
2023/10/05 04:22:24;;;;;;;4.40;2.30;;;19.00;99.50;;;;;;5101620;28;20564;-88
2023/10/05 04:24:50;;;;;;;4.40;2.27;;;19.00;99.60;;;;;;5096161;28;20342;-88
2023/10/05 04:27:18;;;;;;;3.50;1.97;;;19.00;99.60;;;;;;5103918;28;20190;-89
2023/10/05 04:29:44;;;;;;;3.23;2.10;;;19.00;99.60;;;;;;5094573;28;20178;-88
2023/10/05 04:32:13;;;;;;;3.70;1.80;;;19.00;99.60;;;;;;5098899;28;20171;-89
2023/10/05 04:34:39;;;;;;;4.37;2.07;;;19.00;99.70;;;;;;5110952;28;20182;-88
2023/10/05 04:37:06;;;;;;;4.53;2.50;;;18.90;99.60;;;;;;5100598;28;20175;-89
2023/10/05 04:39:32;;;;;;;3.20;2.00;;;18.90;99.50;;;;;;5111657;28;20558;-88
2023/10/05 04:42:21;;;;;;;4.43;2.37;;;18.90;99.60;;;;;;5107644;28;20265;-88
2023/10/05 04:44:46;;;;;;;2.60;1.97;;;18.90;99.80;;;;;;5092981;28;20591;-88
2023/10/05 04:47:13;;;;;;;3.80;2.20;;;18.90;99.70;;;;;;5100735;28;20198;-88
2023/10/05 04:49:39;;;;;;;4.03;2.43;;;18.90;99.60;;;;;;5113952;28;20484;-89
2023/10/05 04:52:06;;;;;;;4.17;2.20;;;18.90;99.60;;;;;;5101117;28;20171;-88
2023/10/05 04:54:38;;;;;;;3.77;1.90;;;18.90;99.60;;;;;;5101105;28;20285;-88
2023/10/05 04:57:07;;;;;;;4.50;2.23;;;18.90;99.60;;;;;;5103545;28;20178;-88
2023/10/05 05:02:18;;;;;;;4.37;2.30;;;18.90;99.60;;;;;;5107710;28;20631;-88
2023/10/05 05:07:13;;;;;;;5.33;2.10;;;18.90;99.60;;;;;;5102342;28;20205;-88
2023/10/05 05:09:42;;;;;;;4.03;1.93;;;18.90;99.60;;;;;;5093309;28;20182;-88
2023/10/05 05:12:20;;;;;;;3.47;2.17;;;18.90;99.50;;;;;;5098560;28;20173;-88
2023/10/05 05:14:52;;;;;;;3.20;2.00;;;18.90;99.60;;;;;;5094382;28;20705;-88
2023/10/05 05:17:19;;;;;;;5.40;2.53;;;18.90;99.50;;;;;;5096403;28;20182;-88
2023/10/05 05:19:46;;;;;;;4.80;1.97;;;18.90;99.60;;;;;;5096612;28;20175;-88
2023/10/05 05:22:13;;;;;;;3.17;1.93;;;18.90;99.60;;;;;;5098509;28;20192;-89
2023/10/05 05:24:41;;;;;;;5.33;1.97;;;18.90;99.50;;;;;;5098795;28;20648;-88
2023/10/05 05:29:45;;;;;;;3.17;2.07;;;18.90;99.50;;;;;;5105038;28;20162;-88
2023/10/05 05:32:11;;;;;;;4.93;2.00;;;18.80;99.50;;;;;;5106853;28;20435;-88
2023/10/05 05:34:38;;;;;;;3.67;1.87;;;18.80;99.50;;;;;;5100308;28;20217;-88
2023/10/05 05:37:04;;;;;;;2.90;1.90;;;18.90;99.50;;;;;;5107861;28;20177;-88
2023/10/05 05:39:38;;;;;;;3.80;2.07;;;18.90;99.70;;;;;;5097234;28;20178;-88
2023/10/05 05:42:13;;;;;;;3.87;2.13;;;18.90;99.80;;;;;;5109055;28;20194;-88
2023/10/05 05:44:39;;;;;;;5.97;2.47;;;18.90;99.90;;;;;;5100206;28;20177;-88
2023/10/05 05:47:14;;;;;;;16.47;2.57;;;18.90;99.90;;;;;;5112644;28;20309;-90
2023/10/05 05:49:40;;;;;;;7.27;2.10;;;18.90;99.90;;;;;;5099517;28;20204;-89
2023/10/05 05:52:12;;;;;;;7.30;3.07;;;18.90;99.90;;;;;;5110768;28;20510;-88
2023/10/05 05:54:39;;;;;;;7.27;2.47;;;18.90;99.90;;;;;;5102274;28;20544;-89
2023/10/05 05:57:06;;;;;;;5.37;2.30;;;18.90;99.90;;;;;;5089488;28;20183;-89
2023/10/05 05:59:35;;;;;;;18.80;2.37;;;18.90;99.90;;;;;;5103718;28;20406;-87
2023/10/05 06:02:03;;;;;;;5.80;2.83;;;18.90;99.90;;;;;;5089842;28;20178;-87
2023/10/05 06:04:32;;;;;;;5.23;2.73;;;18.90;99.90;;;;;;5102316;28;20174;-87
2023/10/05 06:07:11;;;;;;;8.43;2.67;;;18.90;99.90;;;;;;5087972;28;20229;-86
2023/10/05 06:09:40;;;;;;;6.00;2.37;;;18.90;99.90;;;;;;5100284;28;20166;-87
2023/10/05 06:12:05;;;;;;;6.33;2.03;;;18.90;99.90;;;;;;5087891;28;20696;-86
2023/10/05 06:14:34;;;;;;;3.67;1.80;;;18.90;99.90;;;;;;5091166;28;20210;-87
2023/10/05 06:17:00;;;;;;;5.70;2.20;;;18.90;99.90;;;;;;5107075;28;20571;-87
2023/10/05 06:19:27;;;;;;;4.10;2.37;;;19.00;99.90;;;;;;5104554;28;20174;-87
2023/10/05 06:21:53;;;;;;;3.80;2.10;;;19.00;99.90;;;;;;5091647;28;20351;-87
2023/10/05 06:24:19;;;;;;;6.07;2.43;;;19.00;99.90;;;;;;5095108;28;20264;-89
2023/10/05 06:26:45;;;;;;;5.00;2.20;;;19.00;99.90;;;;;;5093815;28;20511;-89
2023/10/05 06:29:13;;;;;;;4.17;2.30;;;19.00;99.90;;;;;;5090070;28;20455;-87
2023/10/05 06:31:40;;;;;;;4.90;2.20;;;19.00;99.90;;;;;;5093560;28;20203;-87
2023/10/05 06:34:09;;;;;;;4.63;2.10;;;19.00;99.90;;;;;;5085453;28;20384;-88
2023/10/05 06:36:42;;;;;;;4.00;2.20;;;19.00;99.90;;;;;;5093722;28;20179;-88
2023/10/05 06:39:14;;;;;;;5.10;1.93;;;19.00;99.90;;;;;;5087000;28;20575;-87
2023/10/05 06:41:41;;;;;;;4.77;2.40;;;19.00;99.90;;;;;;5103325;28;20567;-87
2023/10/05 06:44:10;;;;;;;6.67;2.50;;;19.00;99.90;;;;;;5103009;28;20174;-87
2023/10/05 06:46:37;;;;;;;10.77;2.10;;;19.00;99.90;;;;;;5092979;28;20301;-87
2023/10/05 06:49:05;;;;;;;6.77;2.30;;;19.00;99.90;;;;;;5103209;28;20265;-87
2023/10/05 06:51:31;;;;;;;5.20;2.20;;;19.00;99.90;;;;;;5093929;28;20516;-87
2023/10/05 06:53:57;;;;;;;4.50;2.27;;;19.00;99.90;;;;;;5097264;28;20176;-88
2023/10/05 06:56:24;;;;;;;7.10;2.27;;;19.00;99.90;;;;;;5097471;28;20325;-87
2023/10/05 06:58:49;;;;;;;4.90;2.33;;;19.00;99.90;;;;;;5084058;28;20257;-87
2023/10/05 07:01:20;;;;;;;5.07;2.07;;;19.10;99.90;;;;;;5095716;28;20165;-87
2023/10/05 07:03:55;;;;;;;5.03;2.60;;;19.10;99.90;;;;;;5084672;28;20163;-87
2023/10/05 07:06:25;;;;;;;5.77;2.33;;;19.10;99.90;;;;;;5089835;28;20189;-87
2023/10/05 07:08:54;;;;;;;5.13;2.50;;;19.10;99.90;;;;;;5106352;28;20210;-87
2023/10/05 07:11:20;;;;;;;3.90;2.10;;;19.00;99.90;;;;;;5092773;28;20320;-87
2023/10/05 07:13:46;;;;;;;4.73;2.30;;;19.10;99.90;;;;;;5102971;28;20162;-87
2023/10/05 07:16:13;;;;;;;3.70;2.00;;;19.10;99.90;;;;;;5100373;28;20314;-87
2023/10/05 07:18:41;;;;;;;7.90;2.20;;;19.10;99.90;;;;;;5091159;28;20241;-87
2023/10/05 07:21:08;;;;;;;3.40;1.90;;;19.10;99.80;;;;;;5091161;28;20169;-87
2023/10/05 07:23:38;;;;;;;4.30;2.07;;;19.10;99.80;;;;;;5092785;28;20167;-87
2023/10/05 07:26:06;;;;;;;4.27;2.00;;;19.10;99.80;;;;;;5088559;28;20373;-87
2023/10/05 07:28:33;;;;;;;4.10;2.27;;;19.10;99.80;;;;;;5093710;28;20175;-87
2023/10/05 07:30:59;;;;;;;5.67;2.20;;;19.10;99.70;;;;;;5084812;28;20167;-87
2023/10/05 07:33:26;;;;;;;4.53;2.30;;;19.10;99.80;;;;;;5095275;28;20171;-87
2023/10/05 07:35:53;;;;;;;4.47;2.00;;;19.10;99.70;;;;;;5085558;28;20237;-87
2023/10/05 07:38:20;;;;;;;6.40;2.30;;;19.10;99.70;;;;;;5093305;28;20223;-87
2023/10/05 07:40:47;;;;;;;4.30;2.20;;;19.10;99.70;;;;;;5085419;28;20179;-87
2023/10/05 07:43:13;;;;;;;4.00;2.10;;;19.10;99.60;;;;;;5092190;28;20281;-87
2023/10/05 07:45:39;;;;;;;4.00;2.03;;;19.10;99.70;;;;;;5102646;28;20452;-87
2023/10/05 07:48:06;;;;;;;3.40;2.00;;;19.10;99.60;;;;;;5090514;28;20210;-87
2023/10/05 07:50:34;;;;;;;3.63;2.30;;;19.10;99.60;;;;;;5101577;28;20269;-87
2023/10/05 07:52:59;;;;;;;3.77;2.00;;;19.10;99.60;;;;;;5087671;28;20563;-87
2023/10/05 07:55:25;;;;;;;6.20;2.40;;;19.10;99.80;;;;;;5082806;28;20174;-87
2023/10/05 07:57:51;;;;;;;6.87;2.20;;;19.10;99.60;;;;;;5099198;28;20558;-87
2023/10/05 08:00:20;;;;;;;6.33;2.23;;;19.10;99.60;;;;;;5085360;28;20540;-87
2023/10/05 08:02:46;;;;;;;4.57;1.87;;;19.10;99.60;;;;;;5091306;28;20416;-87
2023/10/05 08:05:12;;;;;;;4.37;2.27;;;19.10;99.50;;;;;;5089430;28;20179;-87
2023/10/05 08:07:39;;;;;;;5.07;2.40;;;19.10;99.50;;;;;;5091382;28;20259;-87
2023/10/05 08:10:06;;;;;;;4.53;2.13;;;19.20;99.60;;;;;;5091530;28;20571;-87
2023/10/05 08:12:32;;;;;;;4.13;1.97;;;19.10;99.50;;;;;;5069253;28;20171;-88
2023/10/05 08:14:58;;;;;;;4.73;2.07;;;19.20;99.50;;;;;;5092235;28;20167;-87
2023/10/05 08:17:24;;;;;;;4.27;1.83;;;19.20;99.50;;;;;;5083073;28;20437;-87
2023/10/05 08:19:50;;;;;;;4.13;1.90;;;19.20;99.50;;;;;;5093151;28;20271;-87
2023/10/05 08:22:16;;;;;;;6.47;2.37;;;19.20;99.40;;;;;;5081565;28;20236;-87
2023/10/05 08:24:42;;;;;;;4.83;2.00;;;19.20;99.40;;;;;;5092234;28;20178;-87
2023/10/05 08:27:13;;;;;;;4.97;2.43;;;19.20;99.40;;;;;;5082014;28;20218;-87
2023/10/05 08:29:44;;;;;;;4.87;2.13;;;19.20;99.40;;;;;;5088100;28;20274;-87
2023/10/05 08:32:13;;;;;;;5.37;1.80;;;19.20;99.40;;;;;;5102950;28;20174;-87
2023/10/05 08:34:41;;;;;;;4.40;2.10;;;19.30;99.40;;;;;;5087442;28;20229;-88
2023/10/05 08:37:08;;;;;;;5.13;2.27;;;19.20;99.30;;;;;;5083349;28;20191;-87
2023/10/05 08:39:37;;;;;;;4.13;2.10;;;19.30;99.20;;;;;;5089373;28;20179;-87
2023/10/05 08:42:06;;;;;;;5.63;2.17;;;19.30;99.30;;;;;;5083008;28;20185;-87
2023/10/05 08:44:41;;;;;;;4.77;2.00;;;19.30;99.30;;;;;;5091219;28;20206;-87
2023/10/05 08:47:12;;;;;;;4.77;1.97;;;19.40;99.20;;;;;;5103168;28;20590;-87
2023/10/05 08:49:38;;;;;;;5.77;2.00;;;19.40;99.20;;;;;;5101650;28;20284;-87
2023/10/05 08:52:12;;;;;;;4.93;2.07;;;19.40;99.00;;;;;;5106905;28;20423;-88
2023/10/05 08:54:38;;;;;;;5.20;2.20;;;19.40;99.00;;;;;;5102133;28;20646;-88
2023/10/05 08:57:10;;;;;;;3.47;1.97;;;19.40;98.90;;;;;;5088613;28;20489;-87
2023/10/05 08:59:37;;;;;;;6.70;2.10;;;19.40;98.90;;;;;;5091811;28;20182;-87
2023/10/05 09:02:04;;;;;;;5.97;2.33;;;19.40;98.90;;;;;;5089283;28;20688;-87
2023/10/05 09:04:43;;;;;;;4.60;2.27;;;19.50;98.80;;;;;;5089349;28;20182;-87
2023/10/05 09:07:29;;;;;;;4.43;2.10;;;19.50;98.90;;;;;;5091715;28;20198;-87
2023/10/05 09:09:55;;;;;;;5.23;2.43;;;19.50;99.00;;;;;;5092102;28;20594;-87
2023/10/05 09:12:36;;;;;;;4.73;1.93;;;19.50;98.80;;;;;;5090730;28;20174;-88
2023/10/05 09:15:10;;;;;;;4.83;2.30;;;19.50;98.70;;;;;;5095253;28;20162;-87
2023/10/05 09:17:36;;;;;;;4.97;2.10;;;19.50;98.70;;;;;;5091535;28;20461;-88
2023/10/05 09:20:21;;;;;;;4.90;2.20;;;19.50;98.80;;;;;;5092808;28;20249;-88
2023/10/05 09:22:53;;;;;;;4.53;2.20;;;19.60;98.70;;;;;;5092408;28;20581;-87
2023/10/05 09:25:27;;;;;;;3.97;2.10;;;19.60;98.80;;;;;;5091167;28;20193;-88
2023/10/05 09:27:55;;;;;;;4.23;2.20;;;19.60;98.80;;;;;;5088729;28;20258;-88
2023/10/05 09:30:22;;;;;;;4.40;2.20;;;19.60;98.70;;;;;;5088386;28;20315;-88
2023/10/05 09:32:48;;;;;;;5.57;2.17;;;19.60;98.90;;;;;;5090385;28;20175;-87
2023/10/05 09:35:27;;;;;;;5.80;2.37;;;19.60;98.80;;;;;;5086088;28;20190;-87
2023/10/05 09:37:57;;;;;;;3.97;2.07;;;19.60;98.90;;;;;;5090107;28;20315;-87
2023/10/05 09:40:24;;;;;;;11.63;2.10;;;19.60;98.70;;;;;;5085889;28;20167;-87
2023/10/05 09:42:54;;;;;;;4.53;2.07;;;19.60;98.90;;;;;;5093849;28;20182;-88
2023/10/05 09:45:23;;;;;;;5.73;2.00;;;19.50;98.80;;;;;;5087208;28;20446;-87
2023/10/05 09:47:53;;;;;;;2.70;1.70;;;19.50;98.90;;;;;;5096857;28;20708;-87
2023/10/05 09:50:21;;;;;;;5.47;2.20;;;19.60;99.10;;;;;;5083715;28;20215;-87
2023/10/05 09:52:48;;;;;;;9.20;2.30;;;19.60;98.90;;;;;;5095059;28;20178;-87
2023/10/05 09:55:17;;;;;;;6.33;2.20;;;19.60;99.00;;;;;;5103411;28;20182;-88
2023/10/05 09:57:52;;;;;;;6.00;2.40;;;19.60;98.90;;;;;;5092826;28;20416;-88
2023/10/05 10:03:04;;;;;;;5.83;2.20;;;19.60;99.10;;;;;;5100859;28;20480;-87
2023/10/05 10:05:51;;;;;;;5.30;2.07;;;19.50;99.10;;;;;;5105419;28;20186;-87
2023/10/05 10:08:30;;;;;;;6.10;2.20;;;19.60;99.20;;;;;;5093826;28;20194;-87
2023/10/05 10:11:06;;;;;;;5.67;2.20;;;19.60;99.00;;;;;;5103458;28;20166;-87
2023/10/05 10:13:37;;;;;;;5.73;2.37;;;19.60;99.00;;;;;;5094550;28;20332;-87
2023/10/05 10:16:21;;;;;;;5.10;2.57;;;19.60;99.00;;;;;;5085678;28;20536;-87
2023/10/05 10:19:19;;;;;;;6.20;2.60;;;19.60;99.00;;;;;;5102583;28;20547;-87
2023/10/05 10:21:48;;;;;;;7.47;2.60;;;19.60;99.00;;;;;;5101807;28;20269;-87
2023/10/05 10:24:17;;;;;;;5.70;2.17;;;19.60;99.00;;;;;;5095625;28;20269;-88
2023/10/05 10:27:08;;;;;;;6.20;2.80;;;19.60;99.00;;;;;;5104343;28;20226;-87
2023/10/05 10:29:51;;;;;;;6.27;2.80;;;19.60;99.30;;;;;;5095546;28;20171;-87
2023/10/05 10:32:31;;;;;;;6.83;2.27;;;19.60;99.10;;;;;;5089156;28;20189;-87
2023/10/05 10:35:27;;;;;;;6.17;2.40;;;19.60;99.00;;;;;;5090853;28;20544;-87
2023/10/05 10:37:49;;;;;;;4.83;2.37;;;19.60;99.00;;;;;;5091114;28;20333;-88
2023/10/05 10:43:06;;;;;;;5.53;2.03;;;19.70;99.00;;;;;;5090708;28;20174;-88
2023/10/05 10:45:41;;;;;;;4.80;2.40;;;19.70;99.00;;;;;;5089782;28;20385;-88
2023/10/05 10:48:09;;;;;;;6.33;2.17;;;19.70;99.00;;;;;;5091114;28;20291;-88
2023/10/05 10:50:38;;;;;;;4.27;2.10;;;19.70;99.00;;;;;;5101605;28;20170;-87
2023/10/05 10:53:16;;;;;;;6.40;2.27;;;19.70;98.90;;;;;;5101984;28;20224;-87
2023/10/05 10:55:48;;;;;;;4.77;2.30;;;19.70;98.90;;;;;;5104766;28;20170;-88
2023/10/05 10:58:16;;;;;;;6.73;2.50;;;19.70;98.90;;;;;;5099067;28;20167;-87
2023/10/05 11:01:13;;;;;;;7.83;2.20;;;19.70;98.90;;;;;;5097678;28;20201;-87
2023/10/05 11:03:41;;;;;;;4.83;2.30;;;19.70;98.90;;;;;;5104068;28;20179;-87
2023/10/05 11:06:09;;;;;;;3.73;2.10;;;19.70;98.70;;;;;;5097725;28;20265;-87
2023/10/05 11:08:40;;;;;;;4.73;2.43;;;19.80;98.70;;;;;;5100127;28;20206;-87
2023/10/05 11:11:15;;;;;;;6.93;2.23;;;19.80;98.80;;;;;;5091741;28;20167;-87
2023/10/05 11:13:45;;;;;;;5.90;2.30;;;19.80;98.80;;;;;;5088929;28;20341;-87
2023/10/05 11:16:11;;;;;;;4.17;1.87;;;19.80;98.70;;;;;;5097066;28;20211;-87
2023/10/05 11:18:57;;;;;;;3.47;1.80;;;19.80;98.70;;;;;;5101716;28;20258;-87
2023/10/05 11:21:26;;;;;;;5.23;2.00;;;19.80;98.70;;;;;;5091050;28;20285;-87
2023/10/05 11:23:57;;;;;;;5.20;1.90;;;19.80;98.70;;;;;;5087933;28;20182;-87
2023/10/05 11:26:35;;;;;;;5.27;2.10;;;19.80;98.70;;;;;;5095249;28;20175;-87
2023/10/05 11:29:14;;;;;;;4.40;2.00;;;19.80;98.60;;;;;;5086772;28;20598;-87
2023/10/05 11:31:41;;;;;;;6.43;2.30;;;19.80;98.70;;;;;;5088171;28;20239;-87
2023/10/05 11:34:11;;;;;;;5.47;1.90;;;19.80;98.60;;;;;;5083038;28;20178;-87
2023/10/05 11:36:39;;;;;;;4.80;2.20;;;19.80;98.50;;;;;;5093432;28;20170;-87
2023/10/05 11:39:20;;;;;;;5.33;2.43;;;19.90;98.50;;;;;;5085291;28;20998;-87
2023/10/05 11:41:47;;;;;;;8.27;2.20;;;19.90;98.60;;;;;;5102325;28;20166;-87
2023/10/05 11:44:20;;;;;;;8.93;2.70;;;19.90;98.40;;;;;;5101757;28;20174;-87
2023/10/05 11:46:46;;;;;;;5.90;2.00;;;19.90;98.50;;;;;;5089984;28;20279;-87
2023/10/05 11:49:13;;;;;;;6.03;2.10;;;19.90;98.30;;;;;;5101938;28;20182;-87
2023/10/05 11:51:42;;;;;;;3.53;2.13;;;19.90;98.30;;;;;;5091372;28;20201;-87
2023/10/05 11:54:24;;;;;;;2.73;1.80;;;19.90;98.30;;;;;;5102264;28;20166;-87
2023/10/05 11:56:53;;;;;;;3.70;2.10;;;19.90;98.30;;;;;;5102308;28;20380;-87
2023/10/05 11:59:29;;;;;;;4.67;2.03;;;19.90;98.30;;;;;;5103752;28;20226;-87
2023/10/05 12:01:55;;;;;;;5.93;2.00;;;19.90;98.30;;;;;;5098000;28;20166;-87
2023/10/05 12:04:23;;;;;;;4.13;2.00;;;20.00;98.30;;;;;;5103823;28;20177;-87
2023/10/05 12:06:58;;;;;;;4.67;1.70;;;20.00;98.30;;;;;;5089860;28;20273;-87
2023/10/05 12:09:32;;;;;;;6.90;2.00;;;20.00;98.20;;;;;;5101054;28;20284;-86
2023/10/05 12:11:58;;;;;;;4.17;2.10;;;20.00;98.20;;;;;;5087106;28;20166;-87
2023/10/05 12:14:25;;;;;;;4.37;2.07;;;20.00;98.30;;;;;;5099694;28;20207;-87
2023/10/05 12:16:57;;;;;;;4.10;2.20;;;20.00;98.20;;;;;;5088192;28;20421;-87
2023/10/05 12:19:30;;;;;;;3.50;1.93;;;20.00;98.30;;;;;;5100136;28;20172;-87
2023/10/05 12:22:06;;;;;;;4.30;2.00;;;20.00;98.20;;;;;;5088158;28;20179;-87
2023/10/05 12:24:33;;;;;;;5.17;2.30;;;20.00;98.20;;;;;;5082968;28;20202;-87
2023/10/05 12:26:59;;;;;;;3.83;1.97;;;20.00;98.10;;;;;;5097310;28;20259;-87
2023/10/05 12:29:28;;;;;;;5.17;1.90;;;20.10;98.10;;;;;;5089815;28;20192;-87
2023/10/05 12:31:56;;;;;;;4.20;2.00;;;20.00;98.10;;;;;;5089226;28;20471;-87
2023/10/05 12:34:23;;;;;;;5.07;2.10;;;20.10;98.10;;;;;;5100780;28;20581;-87
2023/10/05 12:36:49;;;;;;;3.93;1.90;;;20.10;98.00;;;;;;5098145;28;20179;-87
2023/10/05 12:39:20;;;;;;;4.27;2.20;;;20.00;98.10;;;;;;5098850;28;20284;-87
2023/10/05 12:41:48;;;;;;;4.00;1.87;;;20.10;98.10;;;;;;5099283;28;20222;-87
2023/10/05 12:44:15;;;;;;;5.13;2.00;;;20.10;98.00;;;;;;5100228;28;20176;-87
2023/10/05 12:46:41;;;;;;;5.17;2.13;;;20.10;98.00;;;;;;5101001;28;20179;-87
2023/10/05 12:49:17;;;;;;;3.80;2.30;;;20.10;98.00;;;;;;5096416;28;20531;-86
2023/10/05 12:51:50;;;;;;;4.67;1.97;;;20.10;98.10;;;;;;5100242;28;20250;-87
2023/10/05 12:54:19;;;;;;;7.43;2.30;;;20.10;98.00;;;;;;5092598;28;20175;-87
2023/10/05 12:56:51;;;;;;;3.93;1.80;;;20.10;98.00;;;;;;5088641;28;20273;-87
2023/10/05 12:59:18;;;;;;;3.43;2.20;;;20.10;98.00;;;;;;5093546;28;20174;-87
2023/10/05 13:01:46;;;;;;;3.30;2.00;;;20.10;98.10;;;;;;5104641;28;20535;-87
2023/10/05 13:04:12;;;;;;;5.57;2.07;;;20.10;98.00;;;;;;5093042;28;20389;-87
2023/10/05 13:06:40;;;;;;;3.27;1.83;;;20.10;98.10;;;;;;5105526;28;20221;-87
2023/10/05 13:09:13;;;;;;;4.07;2.07;;;20.10;98.00;;;;;;5098831;28;20410;-87
2023/10/05 13:11:41;;;;;;;3.43;2.00;;;20.10;98.00;;;;;;5082889;28;20262;-87
2023/10/05 13:14:08;;;;;;;2.63;1.87;;;20.10;97.90;;;;;;5091424;28;20257;-87
2023/10/05 13:16:40;;;;;;;4.13;1.97;;;20.10;97.90;;;;;;5103893;28;20245;-87
2023/10/05 13:19:09;;;;;;;3.33;1.97;;;20.20;98.00;;;;;;5091046;28;20321;-87
2023/10/05 13:21:36;;;;;;;5.70;3.27;;;20.20;97.90;;;;;;5106277;28;20167;-87
2023/10/05 13:24:04;;;;;;;2.77;1.93;;;20.20;98.20;;;;;;5090460;28;20206;-87
2023/10/05 13:26:30;;;;;;;3.30;1.67;;;20.20;97.90;;;;;;5102917;28;20174;-87